AirNav   Everest Fuels
 
 1473 users online  

HI57 Kahuku Fire & Police Station Heliport
Kahuku, Hawaii, USA

GOING TO KAHUKU?


FAA INFORMATION EFFECTIVE 30 JANUARY 2020

Location

FAA Identifier: HI57
Lat/Long: 21-40-30.5450N 157-56-49.0900W
21-40.509083N 157-56.818167W
21.6751514,-157.9469694
(estimated)
Elevation: 11 ft. / 3 m (estimated)
Variation: 11E (1985)
Time zone: UTC -10 (year round; does not observe DST)
Zip code: 96731

Heliport Operations

Heliport use: Private use. Permission required prior to landing
Activation date: 02/1987
Control tower: no
ARTCC: HONOLULU CONTROL FACILITY CENTER
FSS: HONOLULU FLIGHT SERVICE STATION
Attendance: UNATNDD
Wind indicator: yes
Segmented circle: no

Nearby radio navigation aids

VOR radial/distance  VOR name  Freq  Var
HNLr347/22.0HONOLULU VORTAC114.8011E
CKHr320/28.1KOKO HEAD VORTAC113.9011E

Heliport Services

Runway Information

Helipad H1

Dimensions: 60 x 60 ft. / 18 x 18 m
Surface: asphalt
Traffic pattern: leftleft

Heliport Ownership and Management from official FAA records

Ownership: Publicly-owned
Owner: C & C OF HONOLULU
56-470 KAMEHAMEHA HWY
KAHUKU, HI 96731
Phone (808) 723-3857
Manager: HONOLULU POLICE DEPARTMENT
801 S. BERETANIA ST
HONOLULU, HI 96819
Phone (808) 723-3857

Additional Remarks

FOR CD CTC HCF CENTER AT 808-840-6262

Instrument Procedures

There are no published instrument procedures at HI57.

Some nearby airports with instrument procedures:

PHNL - Daniel K Inouye International Airport (21 nm S)
PHJR - Kalaeloa Airport (John Rodgers Field) (23 nm S)
PHMK - Molokai Airport (57 nm SE)
PHLU - Kalaupapa Airport (61 nm SE)
PHNY - Lanai Airport (77 nm SE)
 
Loc | Ops | Rwys | IFR | FBO | Links
Com | Nav | Svcs | Stats | Notes
Area around HI57 (Kahuku Fire & Police Station Heliport)
 
Road maps at: MapQuest Bing Google
 
Aerial photo
No photo
 
Sectional chart

 
Airport distance calculator
Flying to Kahuku Fire & Police Station Heliport? Find the distance to fly.

From to HI57

Sunrise and sunset
Times for 24-Feb-2020
 Local
(UTC-10)
 Zulu
(UTC)
Morning civil twilight06:3516:35
Sunrise06:5716:57
Sunset18:3304:33
Evening civil twilight18:5504:55

Current date and time
Zulu (UTC)  24-Feb-2020 19:07:33
Local (UTC-10)  24-Feb-2020 09:07:33
 
METAR
PHHI 
13nm S 
241856Z AUTO 32006KT 10SM CLR 21/18 A3018 RMK AO2 SLP214 T02110183 $
PHNG 
18nm SE 
241857Z 30005KT 10SM FEW030 24/18 A3015 RMK AO2 SLP205 T02390183 $
PHNL 
21nm S 
241853Z 33006KT 10SM CLR 23/16 A3017 RMK AO2 SLP216 T02330161
PHJR 
23nm S 
241853Z VRB04KT 10SM CLR 25/16 A3018 RMK AO2 SLP227 T02500161
TAF
NOTAMs
Click for the latest NOTAMs
NOTAMs are issued by the DoD/FAA and will open in a separate window not controlled by AirNav.

 

 
 

Would you like to see your business listed on this page?

 If your business provides an interesting product or service to pilots, flight crews, aircraft, or users of the Kahuku Fire & Police Station Heliport, you should consider listing it here.  To start the listing process, click on the button below
 
Add a business
 

Other Pages about Kahuku Fire & Police Station Heliport

Update a link
 
Copyright © AirNav, LLC. All rights reserved. Privacy Policy  Contact